createdAt,value
2018-11-23T00:00:14.025Z,53.50
2018-11-23T00:02:43.704Z,47.80
2018-11-23T00:05:13.295Z,54.10
2018-11-23T00:07:42.694Z,54.17
2018-11-23T00:10:13.010Z,52.83
2018-11-23T00:12:41.481Z,51.57
2018-11-23T00:15:12.267Z,52.43
2018-11-23T00:17:41.132Z,52.20
2018-11-23T00:20:12.617Z,52.70
2018-11-23T00:22:41.114Z,49.77
2018-11-23T00:25:11.939Z,51.27
2018-11-23T00:27:40.586Z,51.53
2018-11-23T00:30:12.369Z,50.00
2018-11-23T00:32:47.161Z,55.93
2018-11-23T00:35:17.539Z,46.83
2018-11-23T00:37:46.611Z,50.53
2018-11-23T00:40:20.489Z,50.03
2018-11-23T00:42:49.373Z,49.93
2018-11-23T00:45:17.879Z,49.63
2018-11-23T00:47:47.094Z,46.93
2018-11-23T00:50:17.393Z,48.53
2018-11-23T00:52:46.508Z,48.60
2018-11-23T00:55:16.505Z,50.70
2018-11-23T00:57:45.533Z,47.13
2018-11-23T01:00:22.354Z,49.23
2018-11-23T01:02:50.927Z,50.93
2018-11-23T01:05:20.937Z,47.97
2018-11-23T01:07:49.898Z,47.23
2018-11-23T01:10:19.781Z,47.50
2018-11-23T01:12:49.300Z,49.93
2018-11-23T01:15:17.801Z,47.93
2018-11-23T01:17:46.316Z,45.17
2018-11-23T01:20:23.177Z,43.60
2018-11-23T01:22:52.233Z,39.13
2018-11-23T01:25:21.662Z,48.30
2018-11-23T01:27:51.231Z,47.67
2018-11-23T01:30:21.776Z,49.90
2018-11-23T01:32:50.314Z,48.47
2018-11-23T01:35:18.963Z,45.90
2018-11-23T01:37:47.436Z,47.33
2018-11-23T01:40:18.344Z,50.33
2018-11-23T01:42:47.447Z,48.63
2018-11-23T01:45:16.295Z,46.47
2018-11-23T01:47:45.023Z,51.43
2018-11-23T01:50:16.783Z,49.30
2018-11-23T01:52:46.986Z,48.47
2018-11-23T01:55:16.544Z,48.23
2018-11-23T01:57:45.493Z,44.23
2018-11-23T02:00:15.861Z,51.90
2018-11-23T02:02:45.016Z,44.77
2018-11-23T02:05:13.636Z,44.03
2018-11-23T02:07:42.164Z,44.53
2018-11-23T02:10:12.187Z,40.60
2018-11-23T02:12:41.066Z,37.93
2018-11-23T02:15:12.453Z,37.67
2018-11-23T02:17:41.031Z,40.40
2018-11-23T02:20:10.971Z,41.80
2018-11-23T02:22:39.472Z,38.00
2018-11-23T02:25:07.973Z,41.63
2018-11-23T02:27:36.556Z,34.37
2018-11-23T02:30:09.048Z,34.23
2018-11-23T02:32:37.573Z,39.17
2018-11-23T02:35:06.281Z,39.83
2018-11-23T02:37:34.775Z,40.97
2018-11-23T02:40:04.430Z,44.40
2018-11-23T02:42:33.181Z,46.50
2018-11-23T02:45:01.660Z,43.50
2018-11-23T02:47:30.504Z,41.63
2018-11-23T02:49:58.996Z,44.87
2018-11-23T02:52:27.468Z,49.20
2018-11-23T02:54:55.950Z,54.50
2018-11-23T02:57:24.893Z,49.00
2018-11-23T02:59:53.376Z,50.00
2018-11-23T03:02:21.852Z,48.33
2018-11-23T03:04:50.444Z,47.40
2018-11-23T03:07:18.922Z,44.57
2018-11-23T03:09:47.378Z,48.53
2018-11-23T03:12:15.872Z,45.83
2018-11-23T03:14:44.387Z,47.43
2018-11-23T03:17:12.866Z,48.17
2018-11-23T03:19:42.073Z,49.93
2018-11-23T03:22:11.113Z,44.70
2018-11-23T03:24:40.331Z,47.83
2018-11-23T03:27:08.824Z,45.90
2018-11-23T03:29:37.597Z,42.17
2018-11-23T03:32:06.326Z,45.33
2018-11-23T03:34:34.816Z,46.23
2018-11-23T03:37:03.470Z,43.03
2018-11-23T03:39:34.171Z,46.00
2018-11-23T03:42:00.875Z,45.97
2018-11-23T03:44:30.006Z,44.40
2018-11-23T03:46:58.472Z,47.93
2018-11-23T03:49:27.033Z,49.47
2018-11-23T03:51:55.506Z,49.77
2018-11-23T03:54:24.006Z,49.80
2018-11-23T03:56:52.473Z,51.30
2018-11-23T03:59:20.952Z,54.00
2018-11-23T04:01:49.415Z,48.97
2018-11-23T04:04:17.898Z,51.27
2018-11-23T04:06:46.490Z,51.73
2018-11-23T04:09:14.961Z,52.43
2018-11-23T04:11:43.463Z,47.97
2018-11-23T04:21:00.243Z,55.00
2018-11-23T04:23:29.526Z,52.47
2018-11-23T04:25:57.990Z,54.77
2018-11-23T04:28:26.697Z,51.67
2018-11-23T04:30:55.622Z,49.23
2018-11-23T04:33:24.687Z,52.40
2018-11-23T04:35:53.173Z,48.80
2018-11-23T04:38:22.025Z,50.30
2018-11-23T04:40:50.556Z,47.73
2018-11-23T04:43:19.055Z,51.57
2018-11-23T04:45:47.721Z,48.20
2018-11-23T04:48:16.686Z,47.47
2018-11-23T04:50:45.353Z,55.73
2018-11-23T04:53:13.971Z,48.70
2018-11-23T04:55:42.450Z,53.47
2018-11-23T04:58:10.991Z,50.07
2018-11-23T05:00:39.461Z,50.87
2018-11-23T05:03:07.990Z,50.47
2018-11-23T05:05:36.513Z,49.73
2018-11-23T05:08:05.385Z,53.53
2018-11-23T05:10:34.039Z,49.67
2018-11-23T05:13:02.823Z,45.37
2018-11-23T05:15:31.447Z,48.27
2018-11-23T05:18:00.653Z,51.10
2018-11-23T05:20:29.355Z,53.33
2018-11-23T05:22:57.905Z,50.33
2018-11-23T05:25:26.413Z,51.37
2018-11-23T05:27:54.903Z,50.70
2018-11-23T05:30:23.397Z,48.00
2018-11-23T05:32:51.885Z,47.93
2018-11-23T05:35:20.369Z,47.03
2018-11-23T05:37:48.904Z,49.50
2018-11-23T05:40:18.785Z,46.50
2018-11-23T05:42:47.287Z,49.33
2018-11-23T05:45:17.196Z,48.97
2018-11-23T05:47:45.887Z,48.90
2018-11-23T05:50:22.330Z,47.50
2018-11-23T05:52:50.884Z,47.77
2018-11-23T05:55:19.389Z,50.23
2018-11-23T05:57:47.998Z,50.10
2018-11-23T06:00:22.267Z,48.57
2018-11-23T06:02:50.966Z,49.00
2018-11-23T06:05:19.582Z,50.23
2018-11-23T06:07:48.094Z,48.10
2018-11-23T06:10:17.922Z,47.57
2018-11-23T06:12:46.509Z,45.07
2018-11-23T06:15:17.407Z,44.17
2018-11-23T06:17:46.379Z,50.23
2018-11-23T06:20:16.910Z,49.73
2018-11-23T06:22:46.293Z,51.37
2018-11-23T06:25:50.957Z,47.87
2018-11-23T06:28:18.636Z,51.43
2018-11-23T06:30:47.142Z,46.23
2018-11-23T06:33:37.669Z,46.80
2018-11-23T06:36:06.374Z,47.57
2018-11-23T06:38:35.048Z,49.30
2018-11-23T06:41:10.050Z,47.10
2018-11-23T06:43:32.192Z,51.53
2018-11-23T06:46:01.840Z,44.70
2018-11-23T06:48:30.480Z,53.00
2018-11-23T06:50:59.018Z,50.70
2018-11-23T06:53:27.579Z,51.33
2018-11-23T06:55:57.006Z,51.43
2018-11-23T06:58:25.671Z,56.87
2018-11-23T07:00:55.029Z,51.50
2018-11-23T07:03:23.692Z,52.73
2018-11-23T07:05:52.535Z,52.17
2018-11-23T07:08:21.823Z,47.10
2018-11-23T07:10:50.642Z,45.77
2018-11-23T07:13:19.365Z,47.17
2018-11-23T07:15:47.891Z,45.50
2018-11-23T07:18:16.526Z,49.30
2018-11-23T07:20:45.056Z,45.60
2018-11-23T07:23:13.560Z,43.13
2018-11-23T07:25:42.112Z,45.93
2018-11-23T07:28:15.465Z,51.63
2018-11-23T07:30:39.185Z,50.47
2018-11-23T07:33:07.916Z,52.37
2018-11-23T07:35:36.457Z,53.33
2018-11-23T07:38:04.997Z,48.73
2018-11-23T07:42:50.683Z,50.53
2018-11-23T07:45:19.159Z,48.43
2018-11-23T07:47:47.820Z,48.00
2018-11-23T07:50:16.615Z,52.63
2018-11-23T07:52:45.285Z,52.83
2018-11-23T07:55:14.159Z,55.37
2018-11-23T07:57:42.819Z,51.50
2018-11-23T08:00:17.294Z,51.27
2018-11-23T08:02:46.751Z,50.93
2018-11-23T08:05:16.479Z,52.10
2018-11-23T08:07:45.019Z,52.33
2018-11-23T08:10:13.785Z,51.37
2018-11-23T08:12:44.605Z,53.23
2018-11-23T08:15:17.154Z,58.83
2018-11-23T08:17:45.858Z,61.17
2018-11-23T08:20:16.454Z,54.97
2018-11-23T08:22:45.101Z,53.37
2018-11-23T08:25:14.990Z,53.97
2018-11-23T08:27:44.196Z,54.20
2018-11-23T08:30:16.424Z,48.33
2018-11-23T08:32:45.152Z,47.07
2018-11-23T08:35:13.866Z,49.17
2018-11-23T08:37:42.455Z,49.60
2018-11-23T08:40:13.858Z,50.00
2018-11-23T08:42:43.137Z,46.23
2018-11-23T08:45:13.433Z,49.43
2018-11-23T08:47:41.956Z,51.97
2018-11-23T08:50:13.286Z,51.73
2018-11-23T08:52:41.894Z,49.80
2018-11-23T08:55:11.682Z,50.43
2018-11-23T08:57:41.001Z,50.17
2018-11-23T09:00:19.134Z,47.40
2018-11-23T09:02:48.725Z,52.73
2018-11-23T09:05:17.663Z,56.17
2018-11-23T09:07:47.281Z,53.87
2018-11-23T09:10:18.672Z,50.60
2018-11-23T09:12:49.445Z,47.87
2018-11-23T09:15:17.961Z,48.87
2018-11-23T09:17:46.696Z,52.67
2018-11-23T09:20:16.182Z,51.73
2018-11-23T09:22:44.779Z,58.80
2018-11-23T09:25:14.529Z,65.47
2018-11-23T09:27:43.030Z,50.70
2018-11-23T09:30:15.959Z,53.73
2018-11-23T09:32:45.065Z,48.07
2018-11-23T09:35:14.542Z,45.13
2018-11-23T09:37:43.320Z,48.17
2018-11-23T09:40:18.170Z,43.27
2018-11-23T09:42:46.673Z,42.67
2018-11-23T09:45:17.382Z,48.13
2018-11-23T09:47:46.594Z,43.00
2018-11-23T09:50:16.796Z,43.20
2018-11-23T09:52:46.508Z,41.03
2018-11-23T09:55:15.069Z,45.83
2018-11-23T09:57:43.906Z,46.33
2018-11-23T10:00:14.914Z,45.97
2018-11-23T10:02:43.893Z,49.17
2018-11-23T10:05:13.404Z,44.30
2018-11-23T10:07:42.870Z,44.63
2018-11-23T10:10:12.432Z,45.27
2018-11-23T10:12:41.300Z,42.07
2018-11-23T10:15:11.251Z,42.80
2018-11-23T10:17:42.174Z,41.53
2018-11-23T10:20:14.027Z,39.20
2018-11-23T10:22:43.017Z,38.30
2018-11-23T10:25:12.916Z,39.43
2018-11-23T10:27:42.226Z,37.57
2018-11-23T10:30:15.485Z,39.63
2018-11-23T10:32:44.828Z,39.37
2018-11-23T10:35:13.323Z,40.03
2018-11-23T10:37:42.650Z,38.73
2018-11-23T10:40:13.868Z,38.40
2018-11-23T10:42:42.760Z,39.43
2018-11-23T10:45:17.440Z,40.37
2018-11-23T10:47:46.392Z,37.17
2018-11-23T10:50:16.969Z,37.27
2018-11-23T10:52:45.652Z,37.67
2018-11-23T10:55:16.484Z,36.60
2018-11-23T10:57:45.101Z,37.63
2018-11-23T11:00:21.035Z,40.37
2018-11-23T11:02:55.636Z,37.03
2018-11-23T11:05:31.069Z,42.63
2018-11-23T11:08:01.045Z,37.50
2018-11-23T11:10:29.673Z,38.43
2018-11-23T11:12:58.656Z,38.53
2018-11-23T11:15:27.324Z,36.77
2018-11-23T11:17:55.805Z,37.50
2018-11-23T11:20:24.469Z,38.00
2018-11-23T11:22:52.973Z,35.43
2018-11-23T11:25:21.483Z,37.57
2018-11-23T11:27:49.955Z,39.47
2018-11-23T11:30:19.131Z,35.03
2018-11-23T11:32:48.410Z,34.03
2018-11-23T11:35:16.883Z,36.63
2018-11-23T11:37:45.593Z,33.13
2018-11-23T11:40:15.689Z,37.97
2018-11-23T11:42:44.590Z,32.93
2018-11-23T11:45:17.371Z,37.17
2018-11-23T11:47:46.391Z,35.27
2018-11-23T11:50:15.385Z,32.93
2018-11-23T11:52:45.693Z,32.00
2018-11-23T11:55:16.579Z,37.27
2018-11-23T11:57:45.721Z,29.23
2018-11-23T12:00:18.776Z,28.70
2018-11-23T12:02:48.040Z,30.40
2018-11-23T12:05:16.553Z,30.27
2018-11-23T12:07:45.069Z,30.87
2018-11-23T12:10:16.250Z,32.57
2018-11-23T12:12:44.792Z,33.00
2018-11-23T12:15:14.313Z,31.07
2018-11-23T12:17:43.508Z,34.50
2018-11-23T12:20:22.280Z,31.67
2018-11-23T12:22:51.226Z,32.03
2018-11-23T12:25:20.321Z,33.60
2018-11-23T12:27:48.872Z,36.33
2018-11-23T12:30:18.919Z,38.37
2018-11-23T12:32:48.830Z,34.43
2018-11-23T12:35:18.435Z,33.97
2018-11-23T12:37:47.141Z,38.40
2018-11-23T12:40:17.161Z,55.37
2018-11-23T12:42:46.441Z,62.47
2018-11-23T12:45:17.139Z,36.20
2018-11-23T12:47:45.819Z,34.20
2018-11-23T12:50:16.566Z,36.27
2018-11-23T12:52:45.473Z,37.77
2018-11-23T12:55:14.386Z,37.33
2018-11-23T12:57:43.070Z,34.33
2018-11-23T13:00:31.195Z,35.33
2018-11-23T13:03:01.349Z,36.43
2018-11-23T13:05:30.886Z,38.40
2018-11-23T13:08:00.975Z,38.17
2018-11-23T13:10:30.057Z,32.53
2018-11-23T13:12:59.283Z,39.97
2018-11-23T13:15:27.897Z,37.37
2018-11-23T13:17:57.124Z,37.00
2018-11-23T13:20:25.623Z,36.70
2018-11-23T13:22:54.137Z,34.93
2018-11-23T13:25:24.399Z,40.13
2018-11-23T13:27:52.961Z,32.93
2018-11-23T13:30:29.300Z,36.90
2018-11-23T13:32:57.806Z,33.83
2018-11-23T13:35:26.314Z,37.03
2018-11-23T13:37:54.839Z,36.93
2018-11-23T13:40:24.716Z,33.03
2018-11-23T13:42:54.364Z,34.43
2018-11-23T13:45:24.509Z,36.67
2018-11-23T13:47:53.604Z,36.10
2018-11-23T13:50:24.002Z,34.20
2018-11-23T13:52:54.300Z,35.97
2018-11-23T13:55:22.810Z,40.70
2018-11-23T13:57:51.310Z,33.37
2018-11-23T14:00:21.396Z,33.50
2018-11-23T14:02:49.964Z,32.90
2018-11-23T14:05:19.763Z,35.43
2018-11-23T14:07:49.854Z,37.40
2018-11-23T14:10:20.032Z,33.43
2018-11-23T14:12:48.818Z,37.00
2018-11-23T14:15:18.799Z,33.83
2018-11-23T14:17:48.274Z,39.03
2018-11-23T14:20:17.967Z,32.47
2018-11-23T14:22:46.691Z,31.70
2018-11-23T14:25:16.628Z,33.80
2018-11-23T14:27:45.861Z,34.77
2018-11-23T14:30:16.861Z,30.47
2018-11-23T14:32:45.744Z,30.20
2018-11-23T14:35:15.553Z,30.90
2018-11-23T14:37:44.721Z,31.53
2018-11-23T14:40:13.846Z,36.87
2018-11-23T14:42:43.361Z,34.70
2018-11-23T14:45:14.299Z,32.23
2018-11-23T14:47:43.103Z,32.37
2018-11-23T14:50:14.739Z,32.87
2018-11-23T14:52:44.659Z,32.17
2018-11-23T14:55:13.245Z,33.77
2018-11-23T14:57:42.666Z,32.27
2018-11-23T15:00:19.924Z,31.17
2018-11-23T15:02:49.763Z,28.03
2018-11-23T15:05:18.727Z,34.70
2018-11-23T15:07:47.411Z,33.97
2018-11-23T15:10:19.246Z,37.30
2018-11-23T15:12:49.115Z,34.83
2018-11-23T15:15:22.055Z,33.60
2018-11-23T15:17:52.265Z,34.93
2018-11-23T15:20:25.924Z,31.30
2018-11-23T15:22:56.425Z,37.50
2018-11-23T15:25:24.909Z,33.80
2018-11-23T15:27:53.800Z,34.93
2018-11-23T15:30:24.637Z,35.63
2018-11-23T15:32:53.164Z,34.63
2018-11-23T15:35:21.742Z,39.40
2018-11-23T15:37:50.426Z,40.00
2018-11-23T15:40:21.636Z,40.60
2018-11-23T15:42:51.366Z,38.13
2018-11-23T15:45:23.629Z,37.60
2018-11-23T15:47:52.322Z,34.00
2018-11-23T15:50:24.216Z,33.47
2018-11-23T15:52:53.686Z,34.90
2018-11-23T15:55:24.764Z,31.93
2018-11-23T15:57:54.416Z,32.47
2018-11-23T16:00:25.634Z,32.33
2018-11-23T16:02:54.385Z,30.80
2018-11-23T16:05:24.270Z,30.83
2018-11-23T16:07:54.514Z,34.50
2018-11-23T16:10:25.958Z,29.17
2018-11-23T16:12:55.854Z,29.40
2018-11-23T16:15:25.185Z,31.00
2018-11-23T16:17:54.191Z,31.47
2018-11-23T16:20:25.830Z,26.53
2018-11-23T16:22:55.918Z,29.40
2018-11-23T16:25:24.433Z,33.87
2018-11-23T16:27:56.585Z,30.03
2018-11-23T16:30:27.586Z,27.80
2018-11-23T16:32:57.426Z,30.67
2018-11-23T16:35:28.149Z,30.47
2018-11-23T16:37:58.478Z,33.60
2018-11-23T16:40:28.406Z,33.07
2018-11-23T16:42:57.705Z,32.27
2018-11-23T16:45:28.447Z,32.63
2018-11-23T16:47:58.893Z,33.20
2018-11-23T16:50:28.048Z,29.93
2018-11-23T16:52:57.148Z,31.07
2018-11-23T16:55:25.969Z,31.57
2018-11-23T16:57:56.904Z,35.50
2018-11-23T17:00:26.600Z,36.90
2018-11-23T17:02:56.657Z,32.13
2018-11-23T17:05:26.973Z,37.60
2018-11-23T17:07:55.521Z,36.37
2018-11-23T17:10:24.124Z,39.33
2018-11-23T17:12:52.812Z,36.40
2018-11-23T17:15:22.717Z,34.57
2018-11-23T17:17:51.412Z,34.77
2018-11-23T17:20:22.326Z,33.90
2018-11-23T17:22:51.862Z,36.90
2018-11-23T17:25:21.436Z,36.97
2018-11-23T17:27:50.813Z,33.10
2018-11-23T17:30:23.064Z,33.10
2018-11-23T17:32:51.818Z,34.30
2018-11-23T17:35:21.625Z,30.93
2018-11-23T17:37:50.169Z,29.90
2018-11-23T17:40:20.200Z,30.60
2018-11-23T17:42:48.813Z,32.13
2018-11-23T17:45:19.249Z,33.27
2018-11-23T17:47:48.117Z,34.70
2018-11-23T17:50:17.997Z,29.40
2018-11-23T17:52:46.686Z,33.30
2018-11-23T17:55:15.488Z,32.30
2018-11-23T17:57:45.416Z,34.77
2018-11-23T18:00:17.911Z,37.57
2018-11-23T18:02:46.901Z,35.57
2018-11-23T18:05:16.273Z,36.53
2018-11-23T18:07:44.953Z,35.67
2018-11-23T18:10:15.950Z,42.30
2018-11-23T18:12:45.110Z,43.20
2018-11-23T18:15:16.359Z,41.30
2018-11-23T18:17:45.657Z,37.23
2018-11-23T18:20:15.681Z,39.17
2018-11-23T18:22:44.561Z,39.63
2018-11-23T18:25:16.049Z,39.93
2018-11-23T18:27:45.127Z,37.57
2018-11-23T18:30:14.160Z,39.73
2018-11-23T18:32:42.643Z,36.53
2018-11-23T18:35:12.609Z,38.10
2018-11-23T18:37:41.123Z,37.07
2018-11-23T18:40:12.721Z,39.67
2018-11-23T18:42:41.199Z,38.97
2018-11-23T18:45:12.717Z,48.93
2018-11-23T18:47:42.313Z,37.07
2018-11-23T18:50:13.363Z,40.90
2018-11-23T18:52:42.281Z,39.00
2018-11-23T18:55:18.013Z,34.87
2018-11-23T18:57:41.251Z,41.40
2018-11-23T19:00:12.741Z,36.47
2018-11-23T19:02:41.817Z,32.20
2018-11-23T19:05:14.847Z,32.90
2018-11-23T19:07:43.367Z,37.70
2018-11-23T19:10:13.102Z,33.73
2018-11-23T19:12:42.413Z,35.70
2018-11-23T19:15:12.375Z,44.53
2018-11-23T19:17:40.903Z,38.77
2018-11-23T19:20:14.585Z,40.27
2018-11-23T19:22:44.322Z,41.80
2018-11-23T19:25:12.817Z,38.73
2018-11-23T19:27:41.315Z,44.60
2018-11-23T19:30:11.516Z,36.60
2018-11-23T19:32:40.034Z,35.33
2018-11-23T19:35:08.749Z,36.97
2018-11-23T19:37:37.733Z,39.47
2018-11-23T19:40:09.402Z,36.27
2018-11-23T19:42:37.917Z,36.17
2018-11-23T19:45:09.637Z,35.80
2018-11-23T19:47:38.931Z,35.67
2018-11-23T19:50:10.438Z,41.17
2018-11-23T19:52:39.484Z,35.03
2018-11-23T19:55:09.005Z,39.60
2018-11-23T19:57:38.139Z,37.57
2018-11-23T20:00:16.416Z,39.43
2018-11-23T20:02:45.284Z,34.43
2018-11-23T20:05:14.127Z,33.50
2018-11-23T20:07:43.229Z,35.30
2018-11-23T20:10:18.078Z,35.33
2018-11-23T20:12:47.783Z,38.30
2018-11-23T20:15:17.597Z,39.73
2018-11-23T20:17:46.105Z,38.87
2018-11-23T20:20:15.471Z,41.73
2018-11-23T20:22:44.499Z,38.37
2018-11-23T20:25:16.598Z,36.07
2018-11-23T20:27:45.722Z,41.10
2018-11-23T20:30:16.255Z,36.73
2018-11-23T20:32:44.844Z,35.30
2018-11-23T20:35:17.449Z,39.03
2018-11-23T20:37:46.057Z,38.80
2018-11-23T20:40:15.800Z,39.90
2018-11-23T20:42:44.289Z,39.00
2018-11-23T20:45:13.161Z,42.20
2018-11-23T20:47:41.649Z,37.13
2018-11-23T20:50:12.561Z,39.47
2018-11-23T20:52:41.109Z,37.50
2018-11-23T20:55:11.121Z,38.40
2018-11-23T20:57:39.607Z,41.57
2018-11-23T21:00:11.449Z,43.57
2018-11-23T21:02:40.885Z,41.13
2018-11-23T21:05:11.077Z,39.13
2018-11-23T21:07:39.739Z,43.83
2018-11-23T21:10:20.114Z,39.80
2018-11-23T21:12:41.685Z,39.73
2018-11-23T21:15:30.958Z,41.77
2018-11-23T21:18:01.833Z,41.23
2018-11-23T21:20:30.173Z,37.83
2018-11-23T21:22:58.657Z,39.60
2018-11-23T21:25:27.230Z,34.43
2018-11-23T21:27:55.955Z,32.70
2018-11-23T21:30:24.685Z,35.93
2018-11-23T21:32:54.286Z,28.97
2018-11-23T21:35:22.886Z,27.33
2018-11-23T21:37:51.377Z,33.90
2018-11-23T21:40:19.932Z,32.63
2018-11-23T21:42:48.596Z,31.43
2018-11-23T21:45:18.196Z,32.33
2018-11-23T21:47:46.722Z,31.03
2018-11-23T21:50:16.282Z,33.77
2018-11-23T21:52:46.171Z,36.57
2018-11-23T21:55:17.264Z,38.40
2018-11-23T21:57:45.804Z,36.37
2018-11-23T22:00:15.150Z,38.13
2018-11-23T22:02:43.655Z,43.50
2018-11-23T22:05:12.686Z,42.23
2018-11-23T22:07:44.742Z,36.40
2018-11-23T22:10:18.510Z,38.10
2018-11-23T22:12:47.443Z,39.57
2018-11-23T22:15:21.909Z,34.33
2018-11-23T22:17:51.534Z,34.73
2018-11-23T22:20:21.825Z,35.87
2018-11-23T22:22:50.392Z,37.13
2018-11-23T22:25:20.013Z,38.30
2018-11-23T22:27:51.354Z,39.03
2018-11-23T22:30:24.559Z,44.67
2018-11-23T22:32:53.017Z,48.27
2018-11-23T22:35:22.443Z,44.13
2018-11-23T22:37:50.988Z,46.43
2018-11-23T22:40:20.807Z,47.03
2018-11-23T22:42:51.009Z,42.87
2018-11-23T22:45:19.546Z,45.60
2018-11-23T22:47:48.054Z,46.83
2018-11-23T22:50:20.287Z,47.70
2018-11-23T22:52:49.024Z,45.47
2018-11-23T22:55:18.241Z,45.90
2018-11-23T22:57:46.900Z,49.87
2018-11-23T23:00:25.402Z,45.90
2018-11-23T23:02:54.061Z,49.63
2018-11-23T23:05:23.520Z,49.57
2018-11-23T23:07:52.014Z,49.57
2018-11-23T23:10:20.879Z,47.93
2018-11-23T23:12:49.425Z,48.37
2018-11-23T23:15:17.956Z,43.07
2018-11-23T23:17:46.557Z,42.53
2018-11-23T23:20:18.219Z,40.77
2018-11-23T23:22:46.866Z,39.37
2018-11-23T23:25:15.381Z,40.97
2018-11-23T23:27:45.029Z,39.93
2018-11-23T23:30:15.687Z,45.67
2018-11-23T23:32:44.629Z,41.30
2018-11-23T23:35:14.123Z,50.80
2018-11-23T23:37:43.158Z,45.37
2018-11-23T23:40:15.860Z,43.33
2018-11-23T23:42:44.486Z,45.10
2018-11-23T23:45:14.193Z,46.93
2018-11-23T23:47:43.249Z,45.00
2018-11-23T23:50:13.221Z,48.50
2018-11-23T23:52:41.704Z,45.13
2018-11-23T23:55:10.992Z,49.00
2018-11-23T23:57:40.956Z,49.90
